createdAt,value
2018-09-11T00:01:39.627Z,64.12
2018-09-11T00:04:09.404Z,63.71
2018-09-11T00:06:39.105Z,63.17
2018-09-11T00:09:11.430Z,63.34
2018-09-11T00:11:41.493Z,63.79
2018-09-11T00:14:11.214Z,63.19
2018-09-11T00:16:40.913Z,64.07
2018-09-11T00:19:10.697Z,63.28
2018-09-11T00:21:40.406Z,63.41
2018-09-11T00:24:10.169Z,63.53
2018-09-11T00:26:39.868Z,63.62
2018-09-11T00:29:09.605Z,63.78
2018-09-11T00:31:39.296Z,63.41
2018-09-11T00:34:09.813Z,64.00
2018-09-11T00:36:39.624Z,64.29
2018-09-11T00:39:09.747Z,63.82
2018-09-11T00:41:39.440Z,64.58
2018-09-11T00:44:09.176Z,63.66
2018-09-11T00:46:39.208Z,64.22
2018-09-11T00:49:08.940Z,63.28
2018-09-11T00:51:38.645Z,64.21
2018-09-11T00:54:08.372Z,63.43
2018-09-11T00:56:38.033Z,63.25
2018-09-11T00:59:07.769Z,63.88
2018-09-11T01:01:37.468Z,62.79
2018-09-11T01:04:07.183Z,62.93
2018-09-11T01:06:36.913Z,63.14
2018-09-11T01:09:09.132Z,62.88
2018-09-11T01:11:38.828Z,62.83
2018-09-11T01:14:08.556Z,63.21
2018-09-11T01:16:38.316Z,63.47
2018-09-11T01:19:08.058Z,63.58
2018-09-11T01:21:37.784Z,63.45
2018-09-11T01:24:07.498Z,63.10
2018-09-11T01:26:37.209Z,64.54
2018-09-11T01:29:06.947Z,64.18
2018-09-11T01:31:36.662Z,63.78
2018-09-11T01:34:07.223Z,63.41
2018-09-11T01:36:36.972Z,63.50
2018-09-11T01:39:09.608Z,63.55
2018-09-11T01:41:39.348Z,63.80
2018-09-11T01:44:09.467Z,63.08
2018-09-11T01:46:39.200Z,63.04
2018-09-11T01:49:08.904Z,62.75
2018-09-11T01:51:38.662Z,63.88
2018-09-11T01:54:08.352Z,62.65
2018-09-11T01:56:38.064Z,63.20
2018-09-11T01:59:07.756Z,62.82
2018-09-11T02:01:37.451Z,63.15
2018-09-11T02:04:07.215Z,62.68
2018-09-11T02:06:36.926Z,63.22
2018-09-11T02:09:09.733Z,62.85
2018-09-11T02:11:39.449Z,61.98
2018-09-11T02:14:09.204Z,62.74
2018-09-11T02:16:38.867Z,63.00
2018-09-11T02:19:08.560Z,63.00
2018-09-11T02:21:38.329Z,62.75
2018-09-11T02:24:08.056Z,62.78
2018-09-11T02:26:37.768Z,63.11
2018-09-11T02:29:07.505Z,63.03
2018-09-11T02:31:37.196Z,63.85
2018-09-11T02:34:07.288Z,63.36
2018-09-11T02:36:36.974Z,64.13
2018-09-11T02:39:09.389Z,63.25
2018-09-11T02:41:39.193Z,63.74
2018-09-11T02:44:09.848Z,64.07
2018-09-11T02:46:39.704Z,63.67
2018-09-11T02:49:09.424Z,64.22
2018-09-11T02:51:39.182Z,64.43
2018-09-11T02:54:08.847Z,64.33
2018-09-11T02:56:38.589Z,64.17
2018-09-11T02:59:08.302Z,64.36
2018-09-11T03:01:38.006Z,63.36
2018-09-11T03:04:07.804Z,63.80
2018-09-11T03:06:37.513Z,64.39
2018-09-11T03:09:07.585Z,64.53
2018-09-11T03:11:37.480Z,64.16
2018-09-11T03:14:07.283Z,64.66
2018-09-11T03:16:36.989Z,63.74
2018-09-11T03:19:06.812Z,65.09
2018-09-11T03:21:36.543Z,64.41
2018-09-11T03:24:06.280Z,64.47
2018-09-11T03:26:35.961Z,64.98
2018-09-11T03:29:05.713Z,64.76
2018-09-11T03:31:35.389Z,65.61
2018-09-11T03:34:05.108Z,66.05
2018-09-11T03:36:34.801Z,66.22
2018-09-11T03:39:05.185Z,66.01
2018-09-11T03:41:34.876Z,66.49
2018-09-11T03:44:04.720Z,66.90
2018-09-11T03:46:34.467Z,66.35
2018-09-11T03:49:04.263Z,66.66
2018-09-11T03:51:33.944Z,65.75
2018-09-11T03:54:03.664Z,66.50
2018-09-11T03:56:33.349Z,66.93
2018-09-11T03:59:03.079Z,66.08
2018-09-11T04:01:32.751Z,67.97
2018-09-11T04:04:02.459Z,67.16
2018-09-11T04:06:32.185Z,67.96
2018-09-11T04:09:01.923Z,67.69
2018-09-11T04:11:31.616Z,67.81
2018-09-11T04:14:01.354Z,67.68
2018-09-11T04:16:32.044Z,67.84
2018-09-11T04:19:01.779Z,68.14
2018-09-11T04:21:31.712Z,68.38
2018-09-11T04:24:01.393Z,67.79
2018-09-11T04:26:31.160Z,68.18
2018-09-11T04:29:00.928Z,67.81
2018-09-11T04:31:30.740Z,68.29
2018-09-11T04:34:00.489Z,68.62
2018-09-11T04:36:30.292Z,68.62
2018-09-11T04:38:59.912Z,68.32
2018-09-11T04:41:29.604Z,68.67
2018-09-11T04:43:59.328Z,68.65
2018-09-11T04:46:29.013Z,68.82
2018-09-11T04:48:58.746Z,67.79
2018-09-11T04:51:28.425Z,67.74
2018-09-11T04:53:58.139Z,67.62
2018-09-11T04:56:27.838Z,67.88
2018-09-11T04:58:57.544Z,68.73
2018-09-11T05:01:27.229Z,68.00
2018-09-11T05:03:57.012Z,68.18
2018-09-11T05:06:26.720Z,67.65
2018-09-11T05:08:56.444Z,68.29
2018-09-11T05:11:26.206Z,68.77
2018-09-11T05:13:55.968Z,68.27
2018-09-11T05:16:25.644Z,67.89
2018-09-11T05:18:55.356Z,68.63
2018-09-11T05:21:25.103Z,67.46
2018-09-11T05:23:54.812Z,67.51
2018-09-11T05:26:24.488Z,67.73
2018-09-11T05:28:54.159Z,67.47
2018-09-11T05:31:23.847Z,67.59
2018-09-11T05:33:53.560Z,67.40
2018-09-11T05:36:23.224Z,68.09
2018-09-11T05:38:52.965Z,67.17
2018-09-11T05:41:22.615Z,67.46
2018-09-11T05:43:52.314Z,67.16
2018-09-11T05:46:21.989Z,66.82
2018-09-11T05:48:51.725Z,67.12
2018-09-11T05:51:21.503Z,67.71
2018-09-11T05:53:51.212Z,67.61
2018-09-11T05:56:21.435Z,66.72
2018-09-11T05:58:51.151Z,67.57
2018-09-11T06:01:20.896Z,67.40
2018-09-11T06:03:50.598Z,67.57
2018-09-11T06:06:20.286Z,66.63
2018-09-11T06:08:50.112Z,66.68
2018-09-11T06:11:19.817Z,67.26
2018-09-11T06:13:49.496Z,66.88
2018-09-11T06:16:19.263Z,67.20
2018-09-11T06:18:49.013Z,67.12
2018-09-11T06:21:19.188Z,67.20
2018-09-11T06:23:48.865Z,66.71
2018-09-11T06:26:18.536Z,66.19
2018-09-11T06:28:48.240Z,65.98
2018-09-11T06:31:17.910Z,66.06
2018-09-11T06:33:47.592Z,65.67
2018-09-11T06:36:17.292Z,65.16
2018-09-11T06:38:47.027Z,65.56
2018-09-11T06:41:16.755Z,64.49
2018-09-11T06:43:46.456Z,64.38
2018-09-11T06:46:16.128Z,64.28
2018-09-11T06:48:46.057Z,63.88
2018-09-11T06:51:15.731Z,64.42
2018-09-11T06:53:45.456Z,63.56
2018-09-11T06:56:15.120Z,63.36
2018-09-11T06:58:44.916Z,63.76
2018-09-11T07:01:14.623Z,63.82
2018-09-11T07:03:44.356Z,62.89
2018-09-11T07:06:14.093Z,61.88
2018-09-11T07:08:43.772Z,62.46
2018-09-11T07:11:13.528Z,61.18
2018-09-11T07:13:43.209Z,61.58
2018-09-11T07:16:12.896Z,60.78
2018-09-11T07:18:42.689Z,61.16
2018-09-11T07:21:12.372Z,60.40
2018-09-11T07:23:42.092Z,60.16
2018-09-11T07:26:11.811Z,60.37
2018-09-11T07:28:41.432Z,61.24
2018-09-11T07:31:11.160Z,60.55
2018-09-11T07:33:40.835Z,60.86
2018-09-11T07:36:10.593Z,60.03
2018-09-11T07:38:40.321Z,59.50
2018-09-11T07:41:10.697Z,59.80
2018-09-11T07:43:40.477Z,59.26
2018-09-11T07:46:10.154Z,59.29
2018-09-11T07:48:39.834Z,59.82
2018-09-11T07:51:09.571Z,59.82
2018-09-11T07:53:39.250Z,58.70
2018-09-11T07:56:08.976Z,57.84
2018-09-11T07:58:38.721Z,58.36
2018-09-11T08:01:08.412Z,57.20
2018-09-11T08:03:38.236Z,57.25
2018-09-11T08:06:07.933Z,56.96
2018-09-11T08:08:37.677Z,56.95
2018-09-11T08:11:07.412Z,55.99
2018-09-11T08:13:37.091Z,55.39
2018-09-11T08:16:06.793Z,55.63
2018-09-11T08:18:36.493Z,54.98
2018-09-11T08:21:06.259Z,54.82
2018-09-11T08:23:36.178Z,54.81
2018-09-11T08:26:06.256Z,54.17
2018-09-11T08:28:35.972Z,54.29
2018-09-11T08:31:05.970Z,54.36
2018-09-11T08:33:35.649Z,54.95
2018-09-11T08:36:05.352Z,52.85
2018-09-11T08:38:35.038Z,53.08
2018-09-11T08:41:04.779Z,52.45
2018-09-11T08:43:34.500Z,52.79
2018-09-11T08:46:04.185Z,52.10
2018-09-11T08:48:33.886Z,51.74
2018-09-11T08:51:03.618Z,51.98
2018-09-11T08:53:33.324Z,52.12
2018-09-11T08:56:03.016Z,51.50
2018-09-11T08:58:32.761Z,51.28
2018-09-11T09:01:02.453Z,50.82
2018-09-11T09:03:32.274Z,50.42
2018-09-11T09:06:01.993Z,50.48
2018-09-11T09:08:31.715Z,50.81
2018-09-11T09:11:01.457Z,50.10
2018-09-11T09:13:31.158Z,50.51
2018-09-11T09:16:00.828Z,49.69
2018-09-11T09:18:30.564Z,50.03
2018-09-11T09:21:00.288Z,49.53
2018-09-11T09:23:30.557Z,49.97
2018-09-11T09:26:00.248Z,49.90
2018-09-11T09:28:29.947Z,50.06
2018-09-11T09:30:59.711Z,48.69
2018-09-11T09:33:29.400Z,47.87
2018-09-11T09:35:59.137Z,47.10
2018-09-11T09:38:28.821Z,47.89
2018-09-11T09:40:58.580Z,47.98
2018-09-11T09:43:28.318Z,48.35
2018-09-11T09:45:58.025Z,47.51
2018-09-11T09:48:27.733Z,48.08
2018-09-11T09:50:57.487Z,47.11
2018-09-11T09:53:27.204Z,48.44
2018-09-11T09:55:56.884Z,48.29
2018-09-11T09:58:26.864Z,46.87
2018-09-11T10:01:01.672Z,46.53
2018-09-11T10:03:31.501Z,46.79
2018-09-11T10:06:01.198Z,47.69
2018-09-11T10:08:30.925Z,46.42
2018-09-11T10:11:00.860Z,45.52
2018-09-11T10:13:30.568Z,46.19
2018-09-11T10:16:01.106Z,45.81
2018-09-11T10:18:30.821Z,45.95
2018-09-11T10:21:00.493Z,45.70
2018-09-11T10:23:30.253Z,44.39
2018-09-11T10:25:59.945Z,43.96
2018-09-11T10:28:29.632Z,44.64
2018-09-11T10:30:59.317Z,43.53
2018-09-11T10:33:28.995Z,43.75
2018-09-11T10:35:58.691Z,44.39
2018-09-11T10:38:28.372Z,44.48
2018-09-11T10:40:58.079Z,44.56
2018-09-11T10:43:27.761Z,43.35
2018-09-11T10:45:57.433Z,43.03
2018-09-11T10:48:27.137Z,42.17
2018-09-11T10:50:56.885Z,42.23
2018-09-11T10:53:26.560Z,41.79
2018-09-11T10:55:56.292Z,41.98
2018-09-11T10:58:25.999Z,42.64
2018-09-11T11:00:55.725Z,41.31
2018-09-11T11:03:25.423Z,41.25
2018-09-11T11:05:55.127Z,39.93
2018-09-11T11:08:24.893Z,41.20
2018-09-11T11:10:54.646Z,41.92
2018-09-11T11:13:24.374Z,40.12
2018-09-11T11:15:54.041Z,39.47
2018-09-11T11:18:23.798Z,40.34
2018-09-11T11:20:53.449Z,39.66
2018-09-11T11:23:23.205Z,39.70
2018-09-11T11:25:52.848Z,38.56
2018-09-11T11:28:22.545Z,39.71
2018-09-11T11:30:52.481Z,38.75
2018-09-11T11:33:22.196Z,39.25
2018-09-11T11:35:51.853Z,37.59
2018-09-11T11:38:21.522Z,37.18
2018-09-11T11:40:51.222Z,37.49
2018-09-11T11:43:20.913Z,37.47
2018-09-11T11:45:51.281Z,37.46
2018-09-11T11:48:21.057Z,36.16
2018-09-11T11:50:50.698Z,37.56
2018-09-11T11:53:20.598Z,36.75
2018-09-11T11:55:50.303Z,36.98
2018-09-11T11:58:20.062Z,37.20
2018-09-11T12:00:49.815Z,37.87
2018-09-11T12:03:19.511Z,37.00
2018-09-11T12:05:49.240Z,37.65
2018-09-11T12:08:18.956Z,36.88
2018-09-11T12:10:48.772Z,37.94
2018-09-11T12:13:18.458Z,37.28
2018-09-11T12:15:48.219Z,37.51
2018-09-11T12:18:17.995Z,36.89
2018-09-11T12:20:47.728Z,36.61
2018-09-11T12:23:17.464Z,36.98
2018-09-11T12:25:47.173Z,36.48
2018-09-11T12:28:16.889Z,37.20
2018-09-11T12:30:46.612Z,36.80
2018-09-11T12:33:16.319Z,36.74
2018-09-11T12:35:46.104Z,37.45
2018-09-11T12:38:15.803Z,37.56
2018-09-11T12:40:45.487Z,37.50
2018-09-11T12:43:15.244Z,37.95
2018-09-11T12:45:44.981Z,37.08
2018-09-11T12:48:15.016Z,38.12
2018-09-11T12:50:44.554Z,37.51
2018-09-11T12:53:14.273Z,37.47
2018-09-11T12:55:43.961Z,37.73
2018-09-11T12:58:13.699Z,38.19
2018-09-11T13:00:43.436Z,38.28
2018-09-11T13:03:13.180Z,37.74
2018-09-11T13:05:42.921Z,38.01
2018-09-11T13:08:12.608Z,37.64
2018-09-11T13:10:42.353Z,38.62
2018-09-11T13:13:12.061Z,37.88
2018-09-11T13:15:41.780Z,38.00
2018-09-11T13:18:11.477Z,38.14
2018-09-11T13:20:41.213Z,38.15
2018-09-11T13:23:10.893Z,37.56
2018-09-11T13:25:40.809Z,38.25
2018-09-11T13:28:10.538Z,38.41
2018-09-11T13:30:40.263Z,37.56
2018-09-11T13:33:09.989Z,38.02
2018-09-11T13:35:39.685Z,38.53
2018-09-11T13:38:09.422Z,37.90
2018-09-11T13:40:39.116Z,38.20
2018-09-11T13:43:08.856Z,38.13
2018-09-11T13:45:38.564Z,38.41
2018-09-11T13:48:08.369Z,39.83
2018-09-11T13:50:38.066Z,38.76
2018-09-11T13:53:07.776Z,38.08
2018-09-11T13:55:37.494Z,38.48
2018-09-11T13:58:07.215Z,38.59
2018-09-11T14:00:36.946Z,38.95
2018-09-11T14:03:06.844Z,38.39
2018-09-11T14:05:36.564Z,38.68
2018-09-11T14:08:06.601Z,38.94
2018-09-11T14:10:36.377Z,39.39
2018-09-11T14:13:06.056Z,38.94
2018-09-11T14:15:35.748Z,38.37
2018-09-11T14:18:05.490Z,38.82
2018-09-11T14:20:35.185Z,39.48
2018-09-11T14:23:04.916Z,38.43
2018-09-11T14:25:34.610Z,38.58
2018-09-11T14:28:04.482Z,40.41
2018-09-11T14:30:34.228Z,39.85
2018-09-11T14:33:03.959Z,40.30
2018-09-11T14:35:33.732Z,41.28
2018-09-11T14:38:03.468Z,41.40
2018-09-11T14:40:33.214Z,42.51
2018-09-11T14:43:02.938Z,42.26
2018-09-11T14:45:32.687Z,40.96
2018-09-11T14:48:02.426Z,42.05
2018-09-11T14:50:32.225Z,41.65
2018-09-11T14:53:01.975Z,42.01
2018-09-11T14:55:31.712Z,41.59
2018-09-11T14:58:01.383Z,40.92
2018-09-11T15:00:31.076Z,40.66
2018-09-11T15:03:00.812Z,41.47
2018-09-11T15:05:30.480Z,41.11
2018-09-11T15:08:00.312Z,41.48
2018-09-11T15:10:30.019Z,41.08
2018-09-11T15:12:59.676Z,42.02
2018-09-11T15:15:29.400Z,41.18
2018-09-11T15:17:59.076Z,41.52
2018-09-11T15:20:28.793Z,40.75
2018-09-11T15:22:58.492Z,42.21
2018-09-11T15:25:28.205Z,41.75
2018-09-11T15:27:57.937Z,42.31
2018-09-11T15:30:27.805Z,41.93
2018-09-11T15:32:57.682Z,41.75
2018-09-11T15:35:27.434Z,42.07
2018-09-11T15:37:57.161Z,41.82
2018-09-11T15:40:26.842Z,42.15
2018-09-11T15:42:56.593Z,42.57
2018-09-11T15:45:26.277Z,42.63
2018-09-11T15:47:55.975Z,42.43
2018-09-11T15:50:25.817Z,42.08
2018-09-11T15:52:55.541Z,42.52
2018-09-11T15:55:25.288Z,41.88
2018-09-11T15:57:55.004Z,42.51
2018-09-11T16:00:24.723Z,42.76
2018-09-11T16:02:54.408Z,43.74
2018-09-11T16:05:24.136Z,43.09
2018-09-11T16:07:53.841Z,42.33
2018-09-11T16:10:23.544Z,43.16
2018-09-11T16:12:53.272Z,43.32
2018-09-11T16:15:23.030Z,43.26
2018-09-11T16:17:52.765Z,43.47
2018-09-11T16:20:22.453Z,43.96
2018-09-11T16:22:52.205Z,43.46
2018-09-11T16:25:21.848Z,43.69
2018-09-11T16:27:51.513Z,43.20
2018-09-11T16:30:21.210Z,43.69
2018-09-11T16:32:50.876Z,43.43
2018-09-11T16:35:20.564Z,43.66
2018-09-11T16:37:50.248Z,43.69
2018-09-11T16:40:19.913Z,43.76
2018-09-11T16:42:49.613Z,44.16
2018-09-11T16:45:19.281Z,44.20
2018-09-11T16:47:48.976Z,44.12
2018-09-11T16:50:18.624Z,42.85
2018-09-11T16:52:48.344Z,43.95
2018-09-11T16:55:17.990Z,43.71
2018-09-11T16:57:47.745Z,44.08
2018-09-11T17:00:17.482Z,43.09
2018-09-11T17:02:47.180Z,43.88
2018-09-11T17:05:16.851Z,43.89
2018-09-11T17:07:46.528Z,43.87
2018-09-11T17:10:16.244Z,44.91
2018-09-11T17:12:46.192Z,43.66
2018-09-11T17:15:15.865Z,44.57
2018-09-11T17:17:45.589Z,43.33
2018-09-11T17:20:15.355Z,43.31
2018-09-11T17:22:45.005Z,43.22
2018-09-11T17:25:14.680Z,43.85
2018-09-11T17:27:44.393Z,43.31
2018-09-11T17:30:14.121Z,43.66
2018-09-11T17:32:43.785Z,44.10
2018-09-11T17:35:13.468Z,43.61
2018-09-11T17:37:43.161Z,44.61
2018-09-11T17:40:12.817Z,43.70
2018-09-11T17:42:42.518Z,44.53
2018-09-11T17:45:12.309Z,45.16
2018-09-11T17:47:42.193Z,43.84
2018-09-11T17:50:11.900Z,43.85
2018-09-11T17:52:41.636Z,44.89
2018-09-11T17:55:11.514Z,44.91
2018-09-11T17:57:41.201Z,45.30
2018-09-11T18:00:10.993Z,44.94
2018-09-11T18:02:40.677Z,44.25
2018-09-11T18:05:10.445Z,44.26
2018-09-11T18:07:40.124Z,44.54
2018-09-11T18:10:09.803Z,44.43
2018-09-11T18:12:39.524Z,44.44
2018-09-11T18:15:09.225Z,43.62
2018-09-11T18:17:38.913Z,43.98
2018-09-11T18:20:08.970Z,44.19
2018-09-11T18:22:38.729Z,43.32
2018-09-11T18:25:25.972Z,43.65
2018-09-11T18:27:55.654Z,43.05
2018-09-11T18:30:25.360Z,43.32
2018-09-11T18:32:55.055Z,43.80
2018-09-11T18:35:24.771Z,44.05
2018-09-11T18:37:54.449Z,44.00
2018-09-11T18:40:24.163Z,44.93
2018-09-11T18:42:53.869Z,43.99
2018-09-11T18:45:23.680Z,44.73
2018-09-11T18:47:53.380Z,44.93
2018-09-11T18:50:23.102Z,44.42
2018-09-11T18:52:52.852Z,44.76
2018-09-11T18:55:22.545Z,44.75
2018-09-11T18:57:52.326Z,45.65
2018-09-11T19:00:27.092Z,45.58
2018-09-11T19:03:03.376Z,44.55
2018-09-11T19:05:33.073Z,45.31
2018-09-11T19:08:02.857Z,45.80
2018-09-11T19:10:32.569Z,44.89
2018-09-11T19:13:02.244Z,44.78
2018-09-11T19:15:32.069Z,45.35
2018-09-11T19:18:01.778Z,45.55
2018-09-11T19:20:31.495Z,45.48
2018-09-11T19:23:01.308Z,45.65
2018-09-11T19:25:31.027Z,46.54
2018-09-11T19:28:00.728Z,45.57
2018-09-11T19:30:30.420Z,46.07
2018-09-11T19:33:00.132Z,45.69
2018-09-11T19:35:29.829Z,46.02
2018-09-11T19:37:59.539Z,47.27
2018-09-11T19:40:29.248Z,47.14
2018-09-11T19:42:58.938Z,46.86
2018-09-11T19:45:28.615Z,46.64
2018-09-11T19:47:58.354Z,46.41
2018-09-11T19:50:28.111Z,46.88
2018-09-11T19:52:57.751Z,46.67
2018-09-11T19:55:27.485Z,47.18
2018-09-11T19:57:57.244Z,46.21
2018-09-11T20:00:26.930Z,46.50
2018-09-11T20:02:56.624Z,46.12
2018-09-11T20:05:26.301Z,46.65
2018-09-11T20:07:56.333Z,47.20
2018-09-11T20:10:26.003Z,46.98
2018-09-11T20:12:55.758Z,47.60
2018-09-11T20:15:25.428Z,47.72
2018-09-11T20:17:55.184Z,47.09
2018-09-11T20:20:24.880Z,47.32
2018-09-11T20:22:54.585Z,46.88
2018-09-11T20:25:24.364Z,47.29
2018-09-11T20:27:53.984Z,48.02
2018-09-11T20:30:23.688Z,48.29
2018-09-11T20:32:53.366Z,47.75
2018-09-11T20:35:23.014Z,48.30
2018-09-11T20:37:52.728Z,47.41
2018-09-11T20:40:22.420Z,48.32
2018-09-11T20:42:52.113Z,48.58
2018-09-11T20:45:21.783Z,47.87
2018-09-11T20:47:51.444Z,48.63
2018-09-11T20:50:21.140Z,48.81
2018-09-11T20:52:50.906Z,49.34
2018-09-11T20:55:20.623Z,49.51
2018-09-11T20:57:50.329Z,49.44
2018-09-11T21:00:20.055Z,49.37
2018-09-11T21:02:49.723Z,49.45
2018-09-11T21:05:19.390Z,49.34
2018-09-11T21:07:49.065Z,49.53
2018-09-11T21:10:18.772Z,49.31
2018-09-11T21:12:48.433Z,50.06
2018-09-11T21:15:18.155Z,50.13
2018-09-11T21:17:47.812Z,49.91
2018-09-11T21:20:17.506Z,49.69
2018-09-11T21:22:47.184Z,50.07
2018-09-11T21:25:16.845Z,49.84
2018-09-11T21:27:46.548Z,50.09
2018-09-11T21:30:16.301Z,50.48
2018-09-11T21:32:45.972Z,50.83
2018-09-11T21:35:15.687Z,50.44
2018-09-11T21:37:45.339Z,51.03
2018-09-11T21:40:15.101Z,50.62
2018-09-11T21:42:44.747Z,50.02
2018-09-11T21:45:14.440Z,50.44
2018-09-11T21:47:44.151Z,50.76
2018-09-11T21:50:13.812Z,51.01
2018-09-11T21:52:43.467Z,50.87
2018-09-11T21:55:13.164Z,51.10
2018-09-11T21:57:42.832Z,50.86
2018-09-11T22:00:13.494Z,50.85
2018-09-11T22:02:43.116Z,50.38
2018-09-11T22:05:12.832Z,50.83
2018-09-11T22:07:42.489Z,50.91
2018-09-11T22:10:12.772Z,50.56
2018-09-11T22:12:42.475Z,50.02
2018-09-11T22:15:12.330Z,50.23
2018-09-11T22:17:42.004Z,49.85
2018-09-11T22:20:11.719Z,50.49
2018-09-11T22:22:41.428Z,49.92
2018-09-11T22:25:11.112Z,50.03
2018-09-11T22:27:40.790Z,49.70
2018-09-11T22:30:10.491Z,48.67
2018-09-11T22:32:40.141Z,48.55
2018-09-11T22:35:09.825Z,48.83
2018-09-11T22:37:39.526Z,49.05
2018-09-11T22:40:09.196Z,49.31
2018-09-11T22:42:38.881Z,49.80
2018-09-11T22:45:08.861Z,49.36
2018-09-11T22:47:38.533Z,49.94
2018-09-11T22:50:08.297Z,50.07
2018-09-11T22:52:37.955Z,49.69
2018-09-11T22:55:07.713Z,49.60
2018-09-11T22:57:37.384Z,49.51
2018-09-11T23:00:07.139Z,50.14
2018-09-11T23:02:36.836Z,49.87
2018-09-11T23:05:06.582Z,49.97
2018-09-11T23:07:36.260Z,50.20
2018-09-11T23:10:06.280Z,50.99
2018-09-11T23:12:35.972Z,51.06
2018-09-11T23:15:05.715Z,50.71
2018-09-11T23:17:35.657Z,51.03
2018-09-11T23:20:05.389Z,50.85
2018-09-11T23:22:35.077Z,49.89
2018-09-11T23:25:04.793Z,50.60
2018-09-11T23:27:34.506Z,50.37
2018-09-11T23:30:04.305Z,50.56
2018-09-11T23:32:34.024Z,50.78
2018-09-11T23:35:03.693Z,50.46
2018-09-11T23:37:33.346Z,50.83
2018-09-11T23:40:03.021Z,51.28
2018-09-11T23:42:33.056Z,52.04
2018-09-11T23:45:02.745Z,51.52
2018-09-11T23:47:32.458Z,51.44
2018-09-11T23:50:02.124Z,51.64
2018-09-11T23:52:31.790Z,51.71
2018-09-11T23:55:01.509Z,52.19
2018-09-11T23:57:31.194Z,51.60
